PWSweather.com
Personal Weather Stations
Station Observations
UWIDEPER1
Brown County, Depere, WI 54115

Brown CountyDepere, WI 54115

Lat: 44.44, Lon: -88.05

Elevation: 610

Station Type: Acurite 5in1

www.depereweather.com

High Low Average
Temperature 90.3°F32.4°C 59.7°F15.4°C 74.9°F23.8°C
Dew Point 76.0°F24.4°C 57.7°F14.3°C 68.4°F20.2°C
Winds 10.4 mph 16.7 kmh Calm Calm 3.0 mph S4.8 kmh S
Wind Gusts 12.7 mph20.4 kmh -- 4.0 mph6.4 kmh
Humidity 96% 61% 82%
Pressure 29.95 in1014.2 mb 29.76 in1007.8 mb -
Precipitation 0.65 in16.5 mm - -
Hour Temp Dew Point Humidity Winds Wind Gusts Pressure Precip Precip Rate Daily Precip Total
12:00 AM 68.2°F20.1°C 65.5°F18.6°C 91% Calm Calm 2.3 mph3.7 kmh 29.91 in1012.9 mb - 0.00 in0.0 mm 0.00 in0.0 mm
12:10 AM 67.8°F19.9°C 65.1°F18.4°C 91% Calm Calm 1.2 mph1.9 kmh 29.90 in1012.5 mb - 0.00 in0.0 mm 0.00 in0.0 mm
12:15 AM 67.8°F19.9°C 65.1°F18.4°C 91% Calm Calm -- 29.90 in1012.5 mb - 0.00 in0.0 mm 0.00 in0.0 mm
12:20 AM 67.5°F19.7°C 64.7°F18.2°C 91% Calm Calm 1.2 mph1.9 kmh 29.90 in1012.5 mb - 0.00 in0.0 mm 0.00 in0.0 mm
12:25 AM 67.5°F19.7°C 64.7°F18.2°C 91% Calm Calm -- 29.90 in1012.5 mb - 0.00 in0.0 mm 0.00 in0.0 mm
12:30 AM 67.5°F19.7°C 64.7°F18.2°C 91% Calm Calm -- 29.90 in1012.5 mb - 0.00 in0.0 mm 0.00 in0.0 mm
12:35 AM 67.5°F19.7°C 64.7°F18.2°C 91% Calm Calm -- 29.90 in1012.5 mb - 0.00 in0.0 mm 0.00 in0.0 mm
12:40 AM 67.4°F19.7°C 64.7°F18.2°C 91% Calm Calm -- 29.89 in1012.2 mb - 0.00 in0.0 mm 0.00 in0.0 mm
12:45 AM 67.3°F19.6°C 64.6°F18.1°C 91% Calm Calm 1.2 mph1.9 kmh 29.90 in1012.5 mb - 0.00 in0.0 mm 0.00 in0.0 mm
12:50 AM 67.1°F19.5°C 65.0°F18.3°C 93% Calm Calm -- 29.90 in1012.5 mb - 0.00 in0.0 mm 0.00 in0.0 mm
12:55 AM 67.1°F19.5°C 65.0°F18.3°C 93% Calm Calm 2.3 mph3.7 kmh 29.90 in1012.5 mb - 0.00 in0.0 mm 0.00 in0.0 mm
01:00 AM 67.1°F19.5°C 65.0°F18.3°C 93% Calm Calm 1.2 mph1.9 kmh 29.89 in1012.2 mb - 0.00 in0.0 mm 0.00 in0.0 mm
01:10 AM 67.6°F19.8°C 65.5°F18.6°C 93% 1.2 mph SW1.9 kmh SW 2.3 mph3.7 kmh 29.89 in1012.2 mb - 0.00 in0.0 mm 0.00 in0.0 mm
01:15 AM 67.5°F19.7°C 65.4°F18.6°C 93% 1.2 mph SSW1.9 kmh SSW 2.3 mph3.7 kmh 29.90 in1012.5 mb - 0.00 in0.0 mm 0.00 in0.0 mm
01:20 AM 67.5°F19.7°C 65.4°F18.6°C 93% Calm Calm 2.3 mph3.7 kmh 29.89 in1012.2 mb - 0.00 in0.0 mm 0.00 in0.0 mm
01:25 AM 67.6°F19.8°C 65.5°F18.6°C 93% 2.3 mph SSW3.7 kmh SSW 3.5 mph5.6 kmh 29.89 in1012.2 mb - 0.00 in0.0 mm 0.00 in0.0 mm
01:30 AM 67.6°F19.8°C 65.5°F18.6°C 93% 2.3 mph S3.7 kmh S 3.5 mph5.6 kmh 29.89 in1012.2 mb - 0.00 in0.0 mm 0.00 in0.0 mm
01:35 AM 67.6°F19.8°C 65.5°F18.6°C 93% 1.2 mph SE1.9 kmh SE 1.2 mph1.9 kmh 29.89 in1012.2 mb - 0.00 in0.0 mm 0.00 in0.0 mm
01:40 AM 67.5°F19.7°C 65.4°F18.6°C 93% Calm Calm 3.5 mph5.6 kmh 29.89 in1012.2 mb - 0.00 in0.0 mm 0.00 in0.0 mm
01:45 AM 67.5°F19.7°C 65.4°F18.6°C 93% 1.2 mph SE1.9 kmh SE -- 29.89 in1012.2 mb - 0.00 in0.0 mm 0.00 in0.0 mm
01:50 AM 67.3°F19.6°C 65.2°F18.4°C 93% Calm Calm 2.3 mph3.7 kmh 29.89 in1012.2 mb - 0.00 in0.0 mm 0.00 in0.0 mm
01:55 AM 67.3°F19.6°C 65.2°F18.4°C 93% 1.2 mph ESE1.9 kmh ESE 1.2 mph1.9 kmh 29.89 in1012.2 mb - 0.00 in0.0 mm 0.00 in0.0 mm
02:00 AM 67.3°F19.6°C 65.2°F18.4°C 93% 1.2 mph SE1.9 kmh SE 1.2 mph1.9 kmh 29.89 in1012.2 mb - 0.00 in0.0 mm 0.00 in0.0 mm
02:10 AM 67.1°F19.5°C 65.0°F18.3°C 93% 1.2 mph SSE1.9 kmh SSE -- 29.89 in1012.2 mb - 0.00 in0.0 mm 0.00 in0.0 mm
02:15 AM 67.0°F19.4°C 65.0°F18.3°C 93% Calm Calm 2.3 mph3.7 kmh 29.89 in1012.2 mb - 0.00 in0.0 mm 0.00 in0.0 mm
02:20 AM 66.9°F19.4°C 64.8°F18.2°C 93% 1.2 mph SE1.9 kmh SE 2.3 mph3.7 kmh 29.88 in1011.9 mb - 0.00 in0.0 mm 0.00 in0.0 mm
02:25 AM 66.6°F19.2°C 64.5°F18.1°C 93% 1.2 mph SE1.9 kmh SE 2.3 mph3.7 kmh 29.88 in1011.9 mb - 0.00 in0.0 mm 0.00 in0.0 mm
02:30 AM 66.6°F19.2°C 64.5°F18.1°C 93% 1.2 mph SE1.9 kmh SE 3.5 mph5.6 kmh 29.88 in1011.9 mb - 0.00 in0.0 mm 0.00 in0.0 mm
02:35 AM 66.6°F19.2°C 64.5°F18.1°C 93% 1.2 mph S1.9 kmh S 2.3 mph3.7 kmh 29.88 in1011.9 mb - 0.00 in0.0 mm 0.00 in0.0 mm
02:40 AM 66.9°F19.4°C 64.8°F18.2°C 93% Calm Calm 2.3 mph3.7 kmh 29.88 in1011.9 mb - 0.00 in0.0 mm 0.00 in0.0 mm
02:45 AM 66.9°F19.4°C 64.2°F17.9°C 91% 1.2 mph ESE1.9 kmh ESE 2.3 mph3.7 kmh 29.88 in1011.9 mb - 0.00 in0.0 mm 0.00 in0.0 mm
02:50 AM 66.9°F19.4°C 64.2°F17.9°C 91% 1.2 mph S1.9 kmh S 1.2 mph1.9 kmh 29.87 in1011.5 mb - 0.00 in0.0 mm 0.00 in0.0 mm
02:55 AM 66.9°F19.4°C 64.2°F17.9°C 91% Calm Calm -- 29.88 in1011.9 mb - 0.00 in0.0 mm 0.00 in0.0 mm
03:00 AM 67.1°F19.5°C 64.4°F18.0°C 91% 1.2 mph SSE1.9 kmh SSE 1.2 mph1.9 kmh 29.88 in1011.9 mb - 0.00 in0.0 mm 0.00 in0.0 mm
03:10 AM 67.1°F19.5°C 64.4°F18.0°C 91% Calm Calm 2.3 mph3.7 kmh 29.88 in1011.9 mb - 0.00 in0.0 mm 0.00 in0.0 mm
03:15 AM 67.3°F19.6°C 64.6°F18.1°C 91% 1.2 mph SSW1.9 kmh SSW 3.5 mph5.6 kmh 29.88 in1011.9 mb - 0.00 in0.0 mm 0.00 in0.0 mm
03:20 AM 67.1°F19.5°C 64.4°F18.0°C 91% Calm Calm 1.2 mph1.9 kmh 29.88 in1011.9 mb - 0.00 in0.0 mm 0.00 in0.0 mm
03:25 AM 67.1°F19.5°C 64.4°F18.0°C 91% 1.2 mph S1.9 kmh S 2.3 mph3.7 kmh 29.87 in1011.5 mb - 0.00 in0.0 mm 0.00 in0.0 mm
03:30 AM 67.3°F19.6°C 64.6°F18.1°C 91% 1.2 mph S1.9 kmh S 3.5 mph5.6 kmh 29.88 in1011.9 mb - 0.00 in0.0 mm 0.00 in0.0 mm
03:35 AM 67.3°F19.6°C 64.6°F18.1°C 91% 1.2 mph S1.9 kmh S 2.3 mph3.7 kmh 29.87 in1011.5 mb - 0.00 in0.0 mm 0.00 in0.0 mm
03:40 AM 67.3°F19.6°C 64.6°F18.1°C 91% 1.2 mph WSW1.9 kmh WSW 2.3 mph3.7 kmh 29.87 in1011.5 mb - 0.00 in0.0 mm 0.00 in0.0 mm
03:45 AM 67.3°F19.6°C 64.6°F18.1°C 91% 1.2 mph SW1.9 kmh SW 2.3 mph3.7 kmh 29.87 in1011.5 mb - 0.00 in0.0 mm 0.00 in0.0 mm
03:50 AM 67.3°F19.6°C 64.6°F18.1°C 91% 2.3 mph SSW3.7 kmh SSW 2.3 mph3.7 kmh 29.88 in1011.9 mb - 0.00 in0.0 mm 0.00 in0.0 mm
03:55 AM 67.3°F19.6°C 64.6°F18.1°C 91% 2.3 mph SW3.7 kmh SW 2.3 mph3.7 kmh 29.87 in1011.5 mb - 0.00 in0.0 mm 0.00 in0.0 mm
04:00 AM 67.3°F19.6°C 64.6°F18.1°C 91% 1.2 mph SW1.9 kmh SW 1.2 mph1.9 kmh 29.87 in1011.5 mb - 0.00 in0.0 mm 0.00 in0.0 mm
04:10 AM 67.1°F19.5°C 64.4°F18.0°C 91% 2.3 mph S3.7 kmh S 2.3 mph3.7 kmh 29.88 in1011.9 mb - 0.00 in0.0 mm 0.00 in0.0 mm
04:15 AM 67.1°F19.5°C 64.4°F18.0°C 91% 1.2 mph SE1.9 kmh SE 1.2 mph1.9 kmh 29.87 in1011.5 mb - 0.00 in0.0 mm 0.00 in0.0 mm
04:20 AM 66.9°F19.4°C 64.2°F17.9°C 91% 1.2 mph SSW1.9 kmh SSW 2.3 mph3.7 kmh 29.88 in1011.9 mb - 0.00 in0.0 mm 0.00 in0.0 mm
04:25 AM 66.6°F19.2°C 63.9°F17.7°C 91% 1.2 mph SW1.9 kmh SW 2.3 mph3.7 kmh 29.88 in1011.9 mb - 0.00 in0.0 mm 0.00 in0.0 mm
04:30 AM 66.6°F19.2°C 63.9°F17.7°C 91% 1.2 mph S1.9 kmh S 1.2 mph1.9 kmh 29.87 in1011.5 mb - 0.00 in0.0 mm 0.00 in0.0 mm
04:35 AM 66.1°F18.9°C 63.4°F17.4°C 91% Calm Calm -- 29.87 in1011.5 mb - 0.00 in0.0 mm 0.00 in0.0 mm
04:40 AM 66.0°F18.9°C 63.3°F17.4°C 91% 1.2 mph S1.9 kmh S 3.5 mph5.6 kmh 29.88 in1011.9 mb - 0.00 in0.0 mm 0.00 in0.0 mm
04:45 AM 65.8°F18.8°C 63.1°F17.3°C 91% 1.2 mph SSW1.9 kmh SSW 3.5 mph5.6 kmh 29.87 in1011.5 mb - 0.00 in0.0 mm 0.00 in0.0 mm
04:50 AM 65.8°F18.8°C 63.1°F17.3°C 91% 1.2 mph SE1.9 kmh SE 2.3 mph3.7 kmh 29.88 in1011.9 mb - 0.00 in0.0 mm 0.00 in0.0 mm
04:55 AM 65.7°F18.7°C 63.0°F17.2°C 91% Calm Calm -- 29.87 in1011.5 mb - 0.00 in0.0 mm 0.00 in0.0 mm
05:00 AM 65.7°F18.7°C 63.6°F17.6°C 93% Calm Calm 1.2 mph1.9 kmh 29.87 in1011.5 mb - 0.00 in0.0 mm 0.00 in0.0 mm
05:10 AM 65.5°F18.6°C 63.4°F17.4°C 93% Calm Calm -- 29.87 in1011.5 mb - 0.00 in0.0 mm 0.00 in0.0 mm
05:15 AM 65.5°F18.6°C 63.4°F17.4°C 93% Calm Calm 2.3 mph3.7 kmh 29.87 in1011.5 mb - 0.00 in0.0 mm 0.00 in0.0 mm
05:20 AM 65.5°F18.6°C 63.4°F17.4°C 93% Calm Calm 1.2 mph1.9 kmh 29.87 in1011.5 mb - 0.00 in0.0 mm 0.00 in0.0 mm
05:25 AM 65.5°F18.6°C 63.4°F17.4°C 93% 1.2 mph S1.9 kmh S 2.3 mph3.7 kmh 29.87 in1011.5 mb - 0.00 in0.0 mm 0.00 in0.0 mm
05:30 AM 65.7°F18.7°C 63.6°F17.6°C 93% 1.2 mph SSW1.9 kmh SSW 3.5 mph5.6 kmh 29.87 in1011.5 mb - 0.00 in0.0 mm 0.00 in0.0 mm
05:35 AM 65.7°F18.7°C 63.6°F17.6°C 93% 1.2 mph S1.9 kmh S 1.2 mph1.9 kmh 29.87 in1011.5 mb - 0.00 in0.0 mm 0.00 in0.0 mm
05:40 AM 65.5°F18.6°C 63.4°F17.4°C 93% 1.2 mph SW1.9 kmh SW 2.3 mph3.7 kmh 29.87 in1011.5 mb - 0.00 in0.0 mm 0.00 in0.0 mm
05:45 AM 65.4°F18.6°C 63.4°F17.4°C 93% 1.2 mph WSW1.9 kmh WSW -- 29.87 in1011.5 mb - 0.00 in0.0 mm 0.00 in0.0 mm
05:50 AM 64.9°F18.3°C 62.9°F17.2°C 93% Calm Calm -- 29.87 in1011.5 mb - 0.00 in0.0 mm 0.00 in0.0 mm
05:55 AM 64.9°F18.3°C 62.9°F17.2°C 93% Calm Calm -- 29.86 in1011.2 mb - 0.00 in0.0 mm 0.00 in0.0 mm
06:00 AM 64.9°F18.3°C 62.9°F17.2°C 93% 1.2 mph S1.9 kmh S 2.3 mph3.7 kmh 29.87 in1011.5 mb - 0.00 in0.0 mm 0.00 in0.0 mm
06:10 AM 64.8°F18.2°C 63.3°F17.4°C 95% Calm Calm -- 29.87 in1011.5 mb - 0.00 in0.0 mm 0.00 in0.0 mm
06:15 AM 64.8°F18.2°C 63.3°F17.4°C 95% Calm Calm -- 29.87 in1011.5 mb - 0.00 in0.0 mm 0.00 in0.0 mm
06:20 AM 64.8°F18.2°C 63.3°F17.4°C 95% Calm Calm -- 29.87 in1011.5 mb - 0.00 in0.0 mm 0.00 in0.0 mm
06:25 AM 64.9°F18.3°C 63.5°F17.5°C 95% Calm Calm 1.2 mph1.9 kmh 29.87 in1011.5 mb - 0.00 in0.0 mm 0.00 in0.0 mm
06:30 AM 64.9°F18.3°C 63.8°F17.7°C 96% Calm Calm 1.2 mph1.9 kmh 29.87 in1011.5 mb - 0.00 in0.0 mm 0.00 in0.0 mm
06:35 AM 64.9°F18.3°C 63.8°F17.7°C 96% Calm Calm 2.3 mph3.7 kmh 29.87 in1011.5 mb - 0.00 in0.0 mm 0.00 in0.0 mm
06:40 AM 64.9°F18.3°C 63.8°F17.7°C 96% 1.2 mph SSW1.9 kmh SSW 3.5 mph5.6 kmh 29.87 in1011.5 mb - 0.00 in0.0 mm 0.00 in0.0 mm
06:45 AM 64.9°F18.3°C 63.8°F17.7°C 96% 1.2 mph SSE1.9 kmh SSE -- 29.87 in1011.5 mb - 0.00 in0.0 mm 0.00 in0.0 mm
06:50 AM 64.9°F18.3°C 63.8°F17.7°C 96% Calm Calm 1.2 mph1.9 kmh 29.87 in1011.5 mb - 0.00 in0.0 mm 0.00 in0.0 mm
06:55 AM 64.9°F18.3°C 63.8°F17.7°C 96% 1.2 mph S1.9 kmh S 1.2 mph1.9 kmh 29.87 in1011.5 mb - 0.00 in0.0 mm 0.00 in0.0 mm
07:00 AM 64.9°F18.3°C 63.8°F17.7°C 96% 1.2 mph S1.9 kmh S 2.3 mph3.7 kmh 29.87 in1011.5 mb - 0.00 in0.0 mm 0.00 in0.0 mm
07:10 AM 65.5°F18.6°C 64.3°F17.9°C 96% 1.2 mph SSW1.9 kmh SSW 1.2 mph1.9 kmh 29.87 in1011.5 mb - 0.00 in0.0 mm 0.00 in0.0 mm
07:15 AM 65.7°F18.7°C 64.5°F18.1°C 96% 1.2 mph S1.9 kmh S 2.3 mph3.7 kmh 29.87 in1011.5 mb - 0.00 in0.0 mm 0.00 in0.0 mm
07:20 AM 65.8°F18.8°C 64.7°F18.2°C 96% 1.2 mph S1.9 kmh S 2.3 mph3.7 kmh 29.87 in1011.5 mb - 0.00 in0.0 mm 0.00 in0.0 mm
07:25 AM 66.1°F18.9°C 64.7°F18.2°C 95% 1.2 mph S1.9 kmh S 2.3 mph3.7 kmh 29.87 in1011.5 mb - 0.00 in0.0 mm 0.00 in0.0 mm
07:30 AM 66.6°F19.2°C 65.1°F18.4°C 95% 1.2 mph S1.9 kmh S 3.5 mph5.6 kmh 29.87 in1011.5 mb - 0.00 in0.0 mm 0.00 in0.0 mm
07:35 AM 66.8°F19.3°C 65.3°F18.5°C 95% 1.2 mph S1.9 kmh S 2.3 mph3.7 kmh 29.87 in1011.5 mb - 0.00 in0.0 mm 0.00 in0.0 mm
07:40 AM 67.2°F19.6°C 65.1°F18.4°C 93% 1.2 mph S1.9 kmh S 2.3 mph3.7 kmh 29.87 in1011.5 mb - 0.00 in0.0 mm 0.00 in0.0 mm
07:45 AM 67.3°F19.6°C 65.2°F18.4°C 93% 1.2 mph S1.9 kmh S 1.2 mph1.9 kmh 29.87 in1011.5 mb - 0.00 in0.0 mm 0.00 in0.0 mm
07:50 AM 67.9°F19.9°C 65.8°F18.8°C 93% 2.3 mph S3.7 kmh S 3.5 mph5.6 kmh 29.87 in1011.5 mb - 0.00 in0.0 mm 0.00 in0.0 mm
07:55 AM 68.0°F20.0°C 65.9°F18.8°C 93% 2.3 mph SW3.7 kmh SW 3.5 mph5.6 kmh 29.86 in1011.2 mb - 0.00 in0.0 mm 0.00 in0.0 mm
08:00 AM 68.5°F20.3°C 65.7°F18.7°C 91% 2.3 mph S3.7 kmh S 3.5 mph5.6 kmh 29.86 in1011.2 mb - 0.00 in0.0 mm 0.00 in0.0 mm
08:10 AM 70.0°F21.1°C 67.0°F19.4°C 90% 2.3 mph SSE3.7 kmh SSE 3.5 mph5.6 kmh 29.87 in1011.5 mb - 0.00 in0.0 mm 0.00 in0.0 mm
08:15 AM 70.5°F21.4°C 66.8°F19.3°C 88% 3.5 mph SSW5.6 kmh SSW 3.5 mph5.6 kmh 29.85 in1010.8 mb - 0.00 in0.0 mm 0.00 in0.0 mm
08:20 AM 70.9°F21.6°C 67.1°F19.5°C 88% 1.2 mph SSW1.9 kmh SSW 2.3 mph3.7 kmh 29.86 in1011.2 mb - 0.00 in0.0 mm 0.00 in0.0 mm
08:25 AM 71.1°F21.7°C 67.3°F19.6°C 88% 1.2 mph S1.9 kmh S 4.6 mph7.4 kmh 29.86 in1011.2 mb - 0.00 in0.0 mm 0.00 in0.0 mm
08:30 AM 71.1°F21.7°C 67.4°F19.7°C 88% 2.3 mph SW3.7 kmh SW 3.5 mph5.6 kmh 29.86 in1011.2 mb - 0.00 in0.0 mm 0.00 in0.0 mm
08:35 AM 71.5°F21.9°C 67.8°F19.9°C 88% 4.6 mph SSW7.4 kmh SSW 4.6 mph7.4 kmh 29.87 in1011.5 mb - 0.00 in0.0 mm 0.00 in0.0 mm
08:40 AM 72.3°F22.4°C 67.9°F19.9°C 86% 2.3 mph SSE3.7 kmh SSE 1.2 mph1.9 kmh 29.86 in1011.2 mb - 0.00 in0.0 mm 0.00 in0.0 mm
08:45 AM 72.3°F22.4°C 67.9°F19.9°C 86% 2.3 mph SW3.7 kmh SW 3.5 mph5.6 kmh 29.86 in1011.2 mb - 0.00 in0.0 mm 0.00 in0.0 mm
08:50 AM 72.7°F22.6°C 68.3°F20.2°C 86% 2.3 mph E3.7 kmh E 2.3 mph3.7 kmh 29.86 in1011.2 mb - 0.00 in0.0 mm 0.00 in0.0 mm
08:55 AM 73.4°F23.0°C 68.9°F20.5°C 86% 2.3 mph SSW3.7 kmh SSW 3.5 mph5.6 kmh 29.86 in1011.2 mb - 0.00 in0.0 mm 0.00 in0.0 mm
09:00 AM 74.0°F23.3°C 69.5°F20.8°C 86% 2.3 mph SSE3.7 kmh SSE 3.5 mph5.6 kmh 29.87 in1011.5 mb - 0.00 in0.0 mm 0.00 in0.0 mm
09:10 AM 75.6°F24.2°C 70.0°F21.1°C 83% 3.5 mph SSW5.6 kmh SSW 3.5 mph5.6 kmh 29.86 in1011.2 mb - 0.00 in0.0 mm 0.00 in0.0 mm
09:15 AM 76.6°F24.8°C 70.7°F21.5°C 82% 2.3 mph S3.7 kmh S 4.6 mph7.4 kmh 29.86 in1011.2 mb - 0.00 in0.0 mm 0.00 in0.0 mm
09:20 AM 77.2°F25.1°C 70.9°F21.6°C 81% 2.3 mph S3.7 kmh S 3.5 mph5.6 kmh 29.86 in1011.2 mb - 0.00 in0.0 mm 0.00 in0.0 mm
09:25 AM 78.1°F25.6°C 71.8°F22.1°C 81% 4.6 mph SW7.4 kmh SW 4.6 mph7.4 kmh 29.86 in1011.2 mb - 0.00 in0.0 mm 0.00 in0.0 mm
09:30 AM 78.4°F25.8°C 72.1°F22.3°C 81% 3.5 mph S5.6 kmh S 3.5 mph5.6 kmh 29.86 in1011.2 mb - 0.00 in0.0 mm 0.00 in0.0 mm
09:35 AM 78.6°F25.9°C 72.3°F22.4°C 81% 3.5 mph SSW5.6 kmh SSW 3.5 mph5.6 kmh 29.86 in1011.2 mb - 0.00 in0.0 mm 0.00 in0.0 mm
09:40 AM 79.0°F26.1°C 72.3°F22.4°C 80% 4.6 mph SSW7.4 kmh SSW 4.6 mph7.4 kmh 29.85 in1010.8 mb - 0.00 in0.0 mm 0.00 in0.0 mm
09:45 AM 79.2°F26.2°C 72.1°F22.3°C 79% 4.6 mph S7.4 kmh S 5.8 mph9.3 kmh 29.86 in1011.2 mb - 0.00 in0.0 mm 0.00 in0.0 mm
09:50 AM 79.3°F26.3°C 72.6°F22.6°C 80% 3.5 mph SE5.6 kmh SE 2.3 mph3.7 kmh 29.86 in1011.2 mb - 0.00 in0.0 mm 0.00 in0.0 mm
09:55 AM 80.1°F26.7°C 72.6°F22.6°C 78% 3.5 mph S5.6 kmh S 3.5 mph5.6 kmh 29.86 in1011.2 mb - 0.00 in0.0 mm 0.00 in0.0 mm
10:00 AM 80.2°F26.8°C 71.6°F22.0°C 75% 4.6 mph SW7.4 kmh SW 6.9 mph11.1 kmh 29.85 in1010.8 mb - 0.00 in0.0 mm 0.00 in0.0 mm
10:10 AM 81.3°F27.4°C 72.6°F22.6°C 75% 3.5 mph SW5.6 kmh SW 2.3 mph3.7 kmh 29.85 in1010.8 mb - 0.00 in0.0 mm 0.00 in0.0 mm
10:15 AM 81.9°F27.7°C 73.2°F22.9°C 75% 2.3 mph SW3.7 kmh SW 3.5 mph5.6 kmh 29.85 in1010.8 mb - 0.00 in0.0 mm 0.00 in0.0 mm
10:20 AM 82.1°F27.8°C 72.9°F22.7°C 74% 3.5 mph WSW5.6 kmh WSW 4.6 mph7.4 kmh 29.85 in1010.8 mb - 0.00 in0.0 mm 0.00 in0.0 mm
10:25 AM 82.7°F28.2°C 73.5°F23.1°C 74% 3.5 mph SSE5.6 kmh SSE 6.9 mph11.1 kmh 29.85 in1010.8 mb - 0.00 in0.0 mm 0.00 in0.0 mm
10:30 AM 82.9°F28.3°C 73.4°F23.0°C 73% 3.5 mph SSW5.6 kmh SSW 5.8 mph9.3 kmh 29.86 in1011.2 mb - 0.00 in0.0 mm 0.00 in0.0 mm
10:35 AM 83.7°F28.7°C 74.1°F23.4°C 73% 3.5 mph S5.6 kmh S 3.5 mph5.6 kmh 29.85 in1010.8 mb - 0.00 in0.0 mm 0.00 in0.0 mm
10:40 AM 83.7°F28.7°C 74.1°F23.4°C 73% 3.5 mph SSW5.6 kmh SSW 4.6 mph7.4 kmh 29.85 in1010.8 mb - 0.00 in0.0 mm 0.00 in0.0 mm
10:45 AM 83.8°F28.8°C 73.4°F23.0°C 71% 3.5 mph SSW5.6 kmh SSW 3.5 mph5.6 kmh 29.84 in1010.5 mb - 0.00 in0.0 mm 0.00 in0.0 mm
10:50 AM 84.2°F29.0°C 74.2°F23.4°C 72% 2.3 mph SE3.7 kmh SE 5.8 mph9.3 kmh 29.85 in1010.8 mb - 0.00 in0.0 mm 0.00 in0.0 mm
10:55 AM 84.7°F29.3°C 74.2°F23.4°C 71% 3.5 mph SW5.6 kmh SW 3.5 mph5.6 kmh 29.84 in1010.5 mb - 0.00 in0.0 mm 0.00 in0.0 mm
11:00 AM 84.8°F29.3°C 74.3°F23.5°C 71% 2.3 mph SSE3.7 kmh SSE 4.6 mph7.4 kmh 29.84 in1010.5 mb - 0.00 in0.0 mm 0.00 in0.0 mm
11:10 AM 85.6°F29.8°C 74.3°F23.5°C 69% 4.6 mph S7.4 kmh S 6.9 mph11.1 kmh 29.84 in1010.5 mb - 0.00 in0.0 mm 0.00 in0.0 mm
11:15 AM 85.9°F29.9°C 74.9°F23.8°C 70% 3.5 mph S5.6 kmh S 4.6 mph7.4 kmh 29.84 in1010.5 mb - 0.00 in0.0 mm 0.00 in0.0 mm
11:20 AM 86.4°F30.2°C 75.0°F23.9°C 69% 3.5 mph SSE5.6 kmh SSE 5.8 mph9.3 kmh 29.84 in1010.5 mb - 0.00 in0.0 mm 0.00 in0.0 mm
11:25 AM 86.7°F30.4°C 74.9°F23.8°C 68% 3.5 mph S5.6 kmh S 6.9 mph11.1 kmh 29.84 in1010.5 mb - 0.00 in0.0 mm 0.00 in0.0 mm
11:30 AM 86.7°F30.4°C 74.9°F23.8°C 68% 3.5 mph S5.6 kmh S 3.5 mph5.6 kmh 29.83 in1010.2 mb - 0.00 in0.0 mm 0.00 in0.0 mm
11:35 AM 86.6°F30.3°C 75.2°F24.0°C 69% 3.5 mph SW5.6 kmh SW 5.8 mph9.3 kmh 29.83 in1010.2 mb - 0.00 in0.0 mm 0.00 in0.0 mm
11:40 AM 86.7°F30.4°C 75.3°F24.1°C 69% 3.5 mph S5.6 kmh S 5.8 mph9.3 kmh 29.83 in1010.2 mb - 0.00 in0.0 mm 0.00 in0.0 mm
11:45 AM 87.4°F30.8°C 75.1°F23.9°C 67% 3.5 mph SW5.6 kmh SW 5.8 mph9.3 kmh 29.82 in1009.8 mb - 0.00 in0.0 mm 0.00 in0.0 mm
11:50 AM 87.3°F30.7°C 75.4°F24.1°C 68% 3.5 mph SSE5.6 kmh SSE 3.5 mph5.6 kmh 29.82 in1009.8 mb - 0.00 in0.0 mm 0.00 in0.0 mm
11:55 AM 87.7°F30.9°C 75.8°F24.3°C 68% 3.5 mph SSE5.6 kmh SSE 3.5 mph5.6 kmh 29.82 in1009.8 mb - 0.00 in0.0 mm 0.00 in0.0 mm
12:00 PM 88.0°F31.1°C 75.2°F24.0°C 66% 4.6 mph SE7.4 kmh SE 6.9 mph11.1 kmh 29.82 in1009.8 mb - 0.00 in0.0 mm 0.00 in0.0 mm
12:10 PM 87.3°F30.7°C 74.5°F23.6°C 66% 4.6 mph SSE7.4 kmh SSE 3.5 mph5.6 kmh 29.82 in1009.8 mb - 0.00 in0.0 mm 0.00 in0.0 mm
12:15 PM 88.1°F31.2°C 75.3°F24.1°C 66% 3.5 mph SW5.6 kmh SW 3.5 mph5.6 kmh 29.82 in1009.8 mb - 0.00 in0.0 mm 0.00 in0.0 mm
12:20 PM 87.4°F30.8°C 75.1°F23.9°C 67% 3.5 mph S5.6 kmh S 4.6 mph7.4 kmh 29.82 in1009.8 mb - 0.00 in0.0 mm 0.00 in0.0 mm
12:25 PM 88.3°F31.3°C 75.5°F24.2°C 66% 3.5 mph SW5.6 kmh SW 5.8 mph9.3 kmh 29.82 in1009.8 mb - 0.00 in0.0 mm 0.00 in0.0 mm
12:30 PM 87.6°F30.9°C 74.9°F23.8°C 66% 3.5 mph SSE5.6 kmh SSE 3.5 mph5.6 kmh 29.82 in1009.8 mb - 0.00 in0.0 mm 0.00 in0.0 mm
12:35 PM 88.1°F31.2°C 74.8°F23.8°C 65% 3.5 mph SW5.6 kmh SW 4.6 mph7.4 kmh 29.82 in1009.8 mb - 0.00 in0.0 mm 0.00 in0.0 mm
12:40 PM 88.9°F31.6°C 75.6°F24.2°C 65% 3.5 mph SE5.6 kmh SE 5.8 mph9.3 kmh 29.82 in1009.8 mb - 0.00 in0.0 mm 0.00 in0.0 mm
12:45 PM 89.0°F31.7°C 75.7°F24.3°C 65% 3.5 mph SSE5.6 kmh SSE 3.5 mph5.6 kmh 29.82 in1009.8 mb - 0.00 in0.0 mm 0.00 in0.0 mm
12:50 PM 89.1°F31.7°C 75.8°F24.3°C 65% 3.5 mph SSW5.6 kmh SSW 5.8 mph9.3 kmh 29.82 in1009.8 mb - 0.00 in0.0 mm 0.00 in0.0 mm
12:55 PM 88.7°F31.5°C 75.4°F24.1°C 65% 3.5 mph SE5.6 kmh SE 3.5 mph5.6 kmh 29.82 in1009.8 mb - 0.00 in0.0 mm 0.00 in0.0 mm
01:00 PM 88.8°F31.6°C 75.5°F24.2°C 65% 3.5 mph W5.6 kmh W 5.8 mph9.3 kmh 29.82 in1009.8 mb - 0.00 in0.0 mm 0.00 in0.0 mm
01:10 PM 89.1°F31.7°C 75.8°F24.3°C 65% 3.5 mph SSW5.6 kmh SSW 2.3 mph3.7 kmh 29.80 in1009.1 mb - 0.00 in0.0 mm 0.00 in0.0 mm
01:15 PM 89.8°F32.1°C 75.5°F24.2°C 63% 3.5 mph SW5.6 kmh SW 8.1 mph13.0 kmh 29.80 in1009.1 mb - 0.00 in0.0 mm 0.00 in0.0 mm
01:20 PM 89.4°F31.9°C 75.1°F23.9°C 63% 4.6 mph SW7.4 kmh SW 3.5 mph5.6 kmh 29.81 in1009.5 mb - 0.00 in0.0 mm 0.00 in0.0 mm
01:30 PM 88.5°F31.4°C 74.3°F23.5°C 63% 4.6 mph WSW7.4 kmh WSW 6.9 mph11.1 kmh 29.80 in1009.1 mb - 0.00 in0.0 mm 0.00 in0.0 mm
01:35 PM 89.2°F31.8°C 75.0°F23.9°C 63% 4.6 mph SSW7.4 kmh SSW 5.8 mph9.3 kmh 29.80 in1009.1 mb - 0.00 in0.0 mm 0.00 in0.0 mm
01:40 PM 89.5°F31.9°C 74.2°F23.4°C 61% 3.5 mph SSW5.6 kmh SSW 6.9 mph11.1 kmh 29.79 in1008.8 mb - 0.00 in0.0 mm 0.00 in0.0 mm
01:45 PM 89.5°F31.9°C 75.2°F24.0°C 63% 4.6 mph SSE7.4 kmh SSE 3.5 mph5.6 kmh 29.80 in1009.1 mb - 0.00 in0.0 mm 0.00 in0.0 mm
01:50 PM 89.8°F32.1°C 74.5°F23.6°C 61% 3.5 mph SSW5.6 kmh SSW 9.2 mph14.8 kmh 29.80 in1009.1 mb - 0.00 in0.0 mm 0.00 in0.0 mm
01:55 PM 90.0°F32.2°C 74.7°F23.7°C 61% 4.6 mph W7.4 kmh W 6.9 mph11.1 kmh 29.80 in1009.1 mb - 0.00 in0.0 mm 0.00 in0.0 mm
02:00 PM 89.5°F31.9°C 74.8°F23.8°C 62% 4.6 mph SW7.4 kmh SW 10.4 mph16.7 kmh 29.80 in1009.1 mb - 0.00 in0.0 mm 0.00 in0.0 mm
02:10 PM 89.5°F31.9°C 75.3°F24.1°C 63% 4.6 mph SSE7.4 kmh SSE 3.5 mph5.6 kmh 29.80 in1009.1 mb - 0.00 in0.0 mm 0.00 in0.0 mm
02:15 PM 89.1°F31.7°C 74.8°F23.8°C 63% 4.6 mph SW7.4 kmh SW 3.5 mph5.6 kmh 29.80 in1009.1 mb - 0.00 in0.0 mm 0.00 in0.0 mm
02:20 PM 89.6°F32.0°C 75.3°F24.1°C 63% 4.6 mph SW7.4 kmh SW 5.8 mph9.3 kmh 29.80 in1009.1 mb - 0.00 in0.0 mm 0.00 in0.0 mm
02:25 PM 89.5°F31.9°C 74.8°F23.8°C 62% 5.8 mph SW9.3 kmh SW 3.5 mph5.6 kmh 29.80 in1009.1 mb - 0.00 in0.0 mm 0.00 in0.0 mm
02:30 PM 89.8°F32.1°C 75.5°F24.2°C 63% 4.6 mph SW7.4 kmh SW 5.8 mph9.3 kmh 29.80 in1009.1 mb - 0.00 in0.0 mm 0.00 in0.0 mm
02:35 PM 90.0°F32.2°C 74.7°F23.7°C 61% 4.6 mph SSW7.4 kmh SSW 8.1 mph13.0 kmh 29.80 in1009.1 mb - 0.00 in0.0 mm 0.00 in0.0 mm
02:40 PM 89.6°F32.0°C 74.4°F23.6°C 61% 6.9 mph SW11.1 kmh SW 8.1 mph13.0 kmh 29.80 in1009.1 mb - 0.00 in0.0 mm 0.00 in0.0 mm
02:45 PM 90.3°F32.4°C 75.0°F23.9°C 61% 4.6 mph S7.4 kmh S 8.1 mph13.0 kmh 29.79 in1008.8 mb - 0.00 in0.0 mm 0.00 in0.0 mm
02:50 PM 90.1°F32.3°C 74.9°F23.8°C 61% 5.8 mph SSW9.3 kmh SSW 3.5 mph5.6 kmh 29.79 in1008.8 mb - 0.00 in0.0 mm 0.00 in0.0 mm
02:55 PM 90.2°F32.3°C 75.9°F24.4°C 63% 4.6 mph SE7.4 kmh SE 4.6 mph7.4 kmh 29.79 in1008.8 mb - 0.00 in0.0 mm 0.00 in0.0 mm
03:00 PM 90.3°F32.4°C 75.5°F24.2°C 62% 2.3 mph S3.7 kmh S 2.3 mph3.7 kmh 29.79 in1008.8 mb - 0.00 in0.0 mm 0.00 in0.0 mm
03:10 PM 90.1°F32.3°C 74.9°F23.8°C 61% 4.6 mph W7.4 kmh W 2.3 mph3.7 kmh 29.80 in1009.1 mb - 0.00 in0.0 mm 0.00 in0.0 mm
03:15 PM 89.0°F31.7°C 74.7°F23.7°C 63% 3.5 mph WSW5.6 kmh WSW 3.5 mph5.6 kmh 29.80 in1009.1 mb - 0.00 in0.0 mm 0.00 in0.0 mm
03:20 PM 88.9°F31.6°C 74.7°F23.7°C 63% 3.5 mph WSW5.6 kmh WSW 3.5 mph5.6 kmh 29.80 in1009.1 mb - 0.00 in0.0 mm 0.00 in0.0 mm
03:25 PM 89.2°F31.8°C 75.0°F23.9°C 63% 3.5 mph WSW5.6 kmh WSW 3.5 mph5.6 kmh 29.80 in1009.1 mb - 0.00 in0.0 mm 0.00 in0.0 mm
03:30 PM 89.5°F31.9°C 75.2°F24.0°C 63% 4.6 mph SSW7.4 kmh SSW 4.6 mph7.4 kmh 29.80 in1009.1 mb - 0.00 in0.0 mm 0.00 in0.0 mm
03:35 PM 89.6°F32.0°C 75.3°F24.1°C 63% 3.5 mph S5.6 kmh S 6.9 mph11.1 kmh 29.80 in1009.1 mb - 0.00 in0.0 mm 0.00 in0.0 mm
03:40 PM 89.6°F32.0°C 74.9°F23.8°C 62% 4.6 mph SW7.4 kmh SW 10.4 mph16.7 kmh 29.80 in1009.1 mb - 0.00 in0.0 mm 0.00 in0.0 mm
03:45 PM 89.6°F32.0°C 75.4°F24.1°C 63% 4.6 mph SW7.4 kmh SW 6.9 mph11.1 kmh 29.80 in1009.1 mb - 0.00 in0.0 mm 0.00 in0.0 mm
03:50 PM 90.3°F32.4°C 76.0°F24.4°C 63% 3.5 mph SE5.6 kmh SE 3.5 mph5.6 kmh 29.79 in1008.8 mb - 0.00 in0.0 mm 0.00 in0.0 mm
03:55 PM 90.2°F32.3°C 75.9°F24.4°C 63% 2.3 mph S3.7 kmh S 6.9 mph11.1 kmh 29.79 in1008.8 mb - 0.00 in0.0 mm 0.00 in0.0 mm
04:00 PM 90.0°F32.2°C 75.7°F24.3°C 63% 4.6 mph WSW7.4 kmh WSW 3.5 mph5.6 kmh 29.79 in1008.8 mb - 0.00 in0.0 mm 0.00 in0.0 mm
04:10 PM 89.4°F31.9°C 75.2°F24.0°C 63% 4.6 mph SW7.4 kmh SW 3.5 mph5.6 kmh 29.79 in1008.8 mb - 0.00 in0.0 mm 0.00 in0.0 mm
04:15 PM 90.0°F32.2°C 75.7°F24.3°C 63% 3.5 mph SSW5.6 kmh SSW 6.9 mph11.1 kmh 29.79 in1008.8 mb - 0.00 in0.0 mm 0.00 in0.0 mm
04:20 PM 90.1°F32.3°C 75.8°F24.3°C 63% 3.5 mph W5.6 kmh W 2.3 mph3.7 kmh 29.78 in1008.5 mb - 0.00 in0.0 mm 0.00 in0.0 mm
04:25 PM 89.6°F32.0°C 75.3°F24.1°C 63% 2.3 mph NNE3.7 kmh NNE 2.3 mph3.7 kmh 29.79 in1008.8 mb - 0.00 in0.0 mm 0.00 in0.0 mm
04:30 PM 89.8°F32.1°C 75.5°F24.2°C 63% 4.6 mph S7.4 kmh S 8.1 mph13.0 kmh 29.79 in1008.8 mb - 0.00 in0.0 mm 0.00 in0.0 mm
04:35 PM 89.6°F32.0°C 75.3°F24.1°C 63% 4.6 mph SSW7.4 kmh SSW 6.9 mph11.1 kmh 29.79 in1008.8 mb - 0.00 in0.0 mm 0.00 in0.0 mm
04:40 PM 89.6°F32.0°C 75.3°F24.1°C 63% 4.6 mph SSW7.4 kmh SSW 3.5 mph5.6 kmh 29.79 in1008.8 mb - 0.00 in0.0 mm 0.00 in0.0 mm
04:45 PM 89.4°F31.9°C 75.2°F24.0°C 63% 5.8 mph S9.3 kmh S 6.9 mph11.1 kmh 29.79 in1008.8 mb - 0.00 in0.0 mm 0.00 in0.0 mm
04:50 PM 89.2°F31.8°C 75.0°F23.9°C 63% 4.6 mph WSW7.4 kmh WSW 5.8 mph9.3 kmh 29.78 in1008.5 mb - 0.00 in0.0 mm 0.00 in0.0 mm
04:55 PM 89.4°F31.9°C 75.2°F24.0°C 63% 3.5 mph WSW5.6 kmh WSW 3.5 mph5.6 kmh 29.79 in1008.8 mb - 0.00 in0.0 mm 0.00 in0.0 mm
05:00 PM 89.2°F31.8°C 75.9°F24.4°C 65% 3.5 mph SSW5.6 kmh SSW 5.8 mph9.3 kmh 29.79 in1008.8 mb - 0.00 in0.0 mm 0.00 in0.0 mm
05:10 PM 89.4°F31.9°C 75.2°F24.0°C 63% 3.5 mph S5.6 kmh S 8.1 mph13.0 kmh 29.78 in1008.5 mb - 0.00 in0.0 mm 0.00 in0.0 mm
05:15 PM 89.2°F31.8°C 74.9°F23.8°C 63% 4.6 mph W7.4 kmh W 4.6 mph7.4 kmh 29.77 in1008.1 mb - 0.00 in0.0 mm 0.00 in0.0 mm
05:20 PM 89.1°F31.7°C 75.8°F24.3°C 65% 3.5 mph S5.6 kmh S 3.5 mph5.6 kmh 29.77 in1008.1 mb - 0.00 in0.0 mm 0.00 in0.0 mm
05:25 PM 88.9°F31.6°C 75.6°F24.2°C 65% 3.5 mph SSW5.6 kmh SSW 5.8 mph9.3 kmh 29.77 in1008.1 mb - 0.00 in0.0 mm 0.00 in0.0 mm
05:30 PM 88.2°F31.2°C 74.9°F23.8°C 65% 4.6 mph SW7.4 kmh SW 3.5 mph5.6 kmh 29.77 in1008.1 mb - 0.00 in0.0 mm 0.00 in0.0 mm
05:35 PM 88.2°F31.2°C 74.9°F23.8°C 65% 3.5 mph W5.6 kmh W 3.5 mph5.6 kmh 29.77 in1008.1 mb - 0.00 in0.0 mm 0.00 in0.0 mm
05:40 PM 88.2°F31.2°C 75.4°F24.1°C 66% 2.3 mph WSW3.7 kmh WSW 2.3 mph3.7 kmh 29.77 in1008.1 mb - 0.00 in0.0 mm 0.00 in0.0 mm
05:45 PM 88.2°F31.2°C 75.4°F24.1°C 66% 2.3 mph SSW3.7 kmh SSW 2.3 mph3.7 kmh 29.77 in1008.1 mb - 0.00 in0.0 mm 0.00 in0.0 mm
05:50 PM 87.8°F31.0°C 75.0°F23.9°C 66% 2.3 mph SSW3.7 kmh SSW 3.5 mph5.6 kmh 29.76 in1007.8 mb - 0.00 in0.0 mm 0.00 in0.0 mm
05:55 PM 87.3°F30.7°C 75.9°F24.4°C 69% 2.3 mph SSW3.7 kmh SSW 3.5 mph5.6 kmh 29.77 in1008.1 mb - 0.00 in0.0 mm 0.00 in0.0 mm
06:00 PM 87.1°F30.6°C 75.7°F24.3°C 69% 2.3 mph S3.7 kmh S 2.3 mph3.7 kmh 29.77 in1008.1 mb - 0.00 in0.0 mm 0.00 in0.0 mm
06:10 PM 86.4°F30.2°C 75.4°F24.1°C 70% 2.3 mph WSW3.7 kmh WSW 1.2 mph1.9 kmh 29.77 in1008.1 mb - 0.00 in0.0 mm 0.00 in0.0 mm
06:15 PM 85.6°F29.8°C 74.7°F23.7°C 70% 2.3 mph S3.7 kmh S 1.2 mph1.9 kmh 29.77 in1008.1 mb - 0.00 in0.0 mm 0.00 in0.0 mm
06:20 PM 85.5°F29.7°C 75.0°F23.9°C 71% 1.2 mph SE1.9 kmh SE 1.2 mph1.9 kmh 29.77 in1008.1 mb - 0.00 in0.0 mm 0.00 in0.0 mm
06:25 PM 84.7°F29.3°C 75.5°F24.2°C 74% 1.2 mph S1.9 kmh S 3.5 mph5.6 kmh 29.77 in1008.1 mb - 0.00 in0.0 mm 0.00 in0.0 mm
06:30 PM 84.2°F29.0°C 75.4°F24.1°C 75% 2.3 mph S3.7 kmh S 2.3 mph3.7 kmh 29.77 in1008.1 mb - 0.00 in0.0 mm 0.00 in0.0 mm
06:35 PM 84.2°F29.0°C 75.4°F24.1°C 75% 1.2 mph S1.9 kmh S 1.2 mph1.9 kmh 29.77 in1008.1 mb - 0.00 in0.0 mm 0.00 in0.0 mm
06:40 PM 84.2°F29.0°C 75.4°F24.1°C 75% 1.2 mph S1.9 kmh S 1.2 mph1.9 kmh 29.77 in1008.1 mb - 0.00 in0.0 mm 0.00 in0.0 mm
06:45 PM 83.5°F28.6°C 74.7°F23.7°C 75% 2.3 mph SW3.7 kmh SW 2.3 mph3.7 kmh 29.78 in1008.5 mb - 0.00 in0.0 mm 0.00 in0.0 mm
06:50 PM 82.9°F28.3°C 74.2°F23.4°C 75% 2.3 mph SSW3.7 kmh SSW 1.2 mph1.9 kmh 29.78 in1008.5 mb - 0.00 in0.0 mm 0.00 in0.0 mm
06:55 PM 82.8°F28.2°C 74.0°F23.3°C 75% 1.2 mph E1.9 kmh E 1.2 mph1.9 kmh 29.79 in1008.8 mb - 0.00 in0.0 mm 0.00 in0.0 mm
07:00 PM 82.6°F28.1°C 73.9°F23.3°C 75% 3.5 mph NNE5.6 kmh NNE 3.5 mph5.6 kmh 29.79 in1008.8 mb - 0.00 in0.0 mm 0.00 in0.0 mm
07:10 PM 80.4°F26.9°C 70.6°F21.4°C 72% 4.6 mph NW7.4 kmh NW 6.9 mph11.1 kmh 29.80 in1009.1 mb - 0.00 in0.0 mm 0.00 in0.0 mm
07:15 PM 79.5°F26.4°C 71.2°F21.8°C 76% 4.6 mph NNE7.4 kmh NNE 5.8 mph9.3 kmh 29.79 in1008.8 mb - 0.00 in0.0 mm 0.00 in0.0 mm
07:20 PM 77.5°F25.3°C 71.2°F21.8°C 81% 4.6 mph NNW7.4 kmh NNW 10.4 mph16.7 kmh 29.80 in1009.1 mb - 0.00 in0.0 mm 0.00 in0.0 mm
07:25 PM 76.2°F24.6°C 69.9°F21.1°C 81% 3.5 mph E5.6 kmh E 6.9 mph11.1 kmh 29.80 in1009.1 mb - 0.00 in0.0 mm 0.00 in0.0 mm
07:30 PM 75.0°F23.9°C 69.5°F20.8°C 83% 3.5 mph E5.6 kmh E 3.5 mph5.6 kmh 29.80 in1009.1 mb - 0.00 in0.0 mm 0.00 in0.0 mm
07:35 PM 73.9°F23.3°C 69.1°F20.6°C 85% 4.6 mph NE7.4 kmh NE 4.6 mph7.4 kmh 29.80 in1009.1 mb - 0.00 in0.0 mm 0.00 in0.0 mm
07:40 PM 73.5°F23.1°C 68.7°F20.4°C 85% 3.5 mph NNE5.6 kmh NNE 3.5 mph5.6 kmh 29.80 in1009.1 mb - 0.00 in0.0 mm 0.00 in0.0 mm
07:45 PM 72.9°F22.7°C 67.4°F19.7°C 83% 4.6 mph E7.4 kmh E 3.5 mph5.6 kmh 29.81 in1009.5 mb - 0.00 in0.0 mm 0.00 in0.0 mm
07:50 PM 72.9°F22.7°C 67.4°F19.7°C 83% 5.8 mph ENE9.3 kmh ENE 8.1 mph13.0 kmh 29.80 in1009.1 mb - 0.00 in0.0 mm 0.00 in0.0 mm
07:55 PM 72.5°F22.5°C 67.7°F19.8°C 85% 4.6 mph NE7.4 kmh NE 6.9 mph11.1 kmh 29.81 in1009.5 mb - 0.00 in0.0 mm 0.00 in0.0 mm
08:00 PM 72.2°F22.3°C 67.8°F19.9°C 86% 3.5 mph ENE5.6 kmh ENE 3.5 mph5.6 kmh 29.81 in1009.5 mb - 0.00 in0.0 mm 0.00 in0.0 mm
08:10 PM 70.5°F21.4°C 65.8°F18.8°C 85% 5.8 mph E9.3 kmh E 6.9 mph11.1 kmh 29.82 in1009.8 mb - 0.00 in0.0 mm 0.00 in0.0 mm
08:15 PM 70.5°F21.4°C 65.1°F18.4°C 83% 4.6 mph ESE7.4 kmh ESE 5.8 mph9.3 kmh 29.83 in1010.2 mb - 0.00 in0.0 mm 0.00 in0.0 mm
08:20 PM 70.5°F21.4°C 65.1°F18.4°C 83% 3.5 mph S5.6 kmh S 3.5 mph5.6 kmh 29.86 in1011.2 mb - 0.00 in0.0 mm 0.00 in0.0 mm
08:25 PM 70.5°F21.4°C 65.4°F18.6°C 84% 4.6 mph SSW7.4 kmh SSW 11.5 mph18.5 kmh 29.92 in1013.2 mb - 0.00 in0.0 mm 0.00 in0.0 mm
08:30 PM 70.5°F21.4°C 66.1°F18.9°C 86% 5.8 mph NNE9.3 kmh NNE 3.5 mph5.6 kmh 29.95 in1014.2 mb - 0.00 in0.0 mm 0.00 in0.0 mm
08:35 PM 68.0°F20.0°C 64.4°F18.0°C 88% 10.4 mph NNE16.7 kmh NNE 11.5 mph18.5 kmh 29.91 in1012.9 mb - 0.29 in7.4 mm 0.29 in7.4 mm
08:40 PM 67.3°F19.6°C 64.2°F17.9°C 90% 10.4 mph ENE16.7 kmh ENE 11.5 mph18.5 kmh 29.91 in1012.9 mb - 0.44 in11.2 mm 0.44 in11.2 mm
08:45 PM 66.0°F18.9°C 63.3°F17.4°C 91% 2.3 mph NNE3.7 kmh NNE 3.5 mph5.6 kmh 29.89 in1012.2 mb - 0.55 in14.0 mm 0.55 in14.0 mm
08:50 PM 65.8°F18.8°C 63.8°F17.7°C 93% 2.3 mph NE3.7 kmh NE 1.2 mph1.9 kmh 29.88 in1011.9 mb - 0.56 in14.2 mm 0.56 in14.2 mm
08:55 PM 65.8°F18.8°C 63.8°F17.7°C 93% 1.2 mph ESE1.9 kmh ESE -- 29.87 in1011.5 mb - 0.57 in14.5 mm 0.57 in14.5 mm
09:00 PM 65.8°F18.8°C 63.8°F17.7°C 93% 2.3 mph ENE3.7 kmh ENE 2.3 mph3.7 kmh 29.87 in1011.5 mb - 0.63 in16.0 mm 0.63 in16.0 mm
09:10 PM 65.8°F18.8°C 63.8°F17.7°C 93% 5.8 mph NNW9.3 kmh NNW 10.4 mph16.7 kmh 29.89 in1012.2 mb - 0.65 in16.5 mm 0.65 in16.5 mm
09:15 PM 65.8°F18.8°C 64.4°F18.0°C 95% 5.8 mph N9.3 kmh N 9.2 mph14.8 kmh 29.89 in1012.2 mb - 0.65 in16.5 mm 0.65 in16.5 mm
09:20 PM 66.0°F18.9°C 64.5°F18.1°C 95% 5.8 mph NE9.3 kmh NE 8.1 mph13.0 kmh 29.91 in1012.9 mb - 0.65 in16.5 mm 0.65 in16.5 mm
09:25 PM 66.0°F18.9°C 64.5°F18.1°C 95% 4.6 mph NW7.4 kmh NW 6.9 mph11.1 kmh 29.91 in1012.9 mb - 0.65 in16.5 mm 0.65 in16.5 mm
09:30 PM 65.7°F18.7°C 64.2°F17.9°C 95% 4.6 mph NNE7.4 kmh NNE 12.7 mph20.4 kmh 29.91 in1012.9 mb - 0.65 in16.5 mm 0.65 in16.5 mm
09:35 PM 65.1°F18.4°C 63.7°F17.6°C 95% 6.9 mph 11.1 kmh 8.1 mph13.0 kmh 29.91 in1012.9 mb - 0.45 in11.4 mm 0.65 in16.5 mm
09:40 PM 65.1°F18.4°C 63.6°F17.6°C 95% 4.6 mph ENE7.4 kmh ENE 4.6 mph7.4 kmh 29.91 in1012.9 mb - 0.21 in5.3 mm 0.65 in16.5 mm
09:45 PM 64.9°F18.3°C 63.5°F17.5°C 95% 4.6 mph NNE7.4 kmh NNE 3.5 mph5.6 kmh 29.91 in1012.9 mb - 0.21 in5.3 mm 0.65 in16.5 mm
09:50 PM 64.6°F18.1°C 63.1°F17.3°C 95% 3.5 mph N5.6 kmh N 3.5 mph5.6 kmh 29.90 in1012.5 mb - 0.09 in2.3 mm 0.65 in16.5 mm
09:55 PM 64.4°F18.0°C 62.9°F17.2°C 95% 3.5 mph E5.6 kmh E 3.5 mph5.6 kmh 29.91 in1012.9 mb - 0.08 in2.0 mm 0.65 in16.5 mm
10:00 PM 64.4°F18.0°C 62.9°F17.2°C 95% 4.6 mph ENE7.4 kmh ENE 5.8 mph9.3 kmh 29.91 in1012.9 mb - 0.02 in0.5 mm 0.65 in16.5 mm
10:10 PM 64.0°F17.8°C 62.6°F17.0°C 95% 4.6 mph ESE7.4 kmh ESE 5.8 mph9.3 kmh 29.87 in1011.5 mb - 0.00 in0.0 mm 0.65 in16.5 mm
10:15 PM 64.0°F17.8°C 62.6°F17.0°C 95% 4.6 mph ESE7.4 kmh ESE 4.6 mph7.4 kmh 29.86 in1011.2 mb - 0.00 in0.0 mm 0.65 in16.5 mm
10:20 PM 63.7°F17.6°C 62.2°F16.8°C 95% 4.6 mph E7.4 kmh E 4.6 mph7.4 kmh 29.86 in1011.2 mb - 0.00 in0.0 mm 0.65 in16.5 mm
10:25 PM 63.3°F17.4°C 61.9°F16.6°C 95% 4.6 mph NE7.4 kmh NE 4.6 mph7.4 kmh 29.84 in1010.5 mb - 0.00 in0.0 mm 0.65 in16.5 mm
10:30 PM 63.1°F17.3°C 61.7°F16.5°C 95% 3.5 mph NE5.6 kmh NE 3.5 mph5.6 kmh 29.86 in1011.2 mb - 0.00 in0.0 mm 0.65 in16.5 mm
10:35 PM 63.0°F17.2°C 61.5°F16.4°C 95% 3.5 mph WNW5.6 kmh WNW 3.5 mph5.6 kmh 29.86 in1011.2 mb - 0.00 in0.0 mm 0.65 in16.5 mm
10:40 PM 63.0°F17.2°C 61.5°F16.4°C 95% 3.5 mph NE5.6 kmh NE 3.5 mph5.6 kmh 29.86 in1011.2 mb - 0.00 in0.0 mm 0.65 in16.5 mm
10:45 PM 62.8°F17.1°C 61.3°F16.3°C 95% 3.5 mph NE5.6 kmh NE 4.6 mph7.4 kmh 29.87 in1011.5 mb - 0.00 in0.0 mm 0.65 in16.5 mm
10:50 PM 62.4°F16.9°C 61.0°F16.1°C 95% 3.5 mph WSW5.6 kmh WSW 4.6 mph7.4 kmh 29.88 in1011.9 mb - 0.00 in0.0 mm 0.65 in16.5 mm
10:55 PM 62.4°F16.9°C 61.0°F16.1°C 95% 3.5 mph E5.6 kmh E 3.5 mph5.6 kmh 29.89 in1012.2 mb - 0.00 in0.0 mm 0.65 in16.5 mm
11:00 PM 62.4°F16.9°C 61.0°F16.1°C 95% 2.3 mph NE3.7 kmh NE 3.5 mph5.6 kmh 29.88 in1011.9 mb - 0.00 in0.0 mm 0.65 in16.5 mm
11:10 PM 62.2°F16.8°C 60.7°F15.9°C 95% 3.5 mph WNW5.6 kmh WNW 3.5 mph5.6 kmh 29.89 in1012.2 mb - 0.00 in0.0 mm 0.65 in16.5 mm
11:15 PM 61.9°F16.6°C 60.4°F15.8°C 95% 4.6 mph NE7.4 kmh NE 6.9 mph11.1 kmh 29.90 in1012.5 mb - 0.00 in0.0 mm 0.65 in16.5 mm
11:20 PM 61.7°F16.5°C 59.7°F15.4°C 93% 4.6 mph N7.4 kmh N 3.5 mph5.6 kmh 29.91 in1012.9 mb - 0.00 in0.0 mm 0.65 in16.5 mm
11:25 PM 61.5°F16.4°C 59.5°F15.3°C 93% 2.3 mph N3.7 kmh N 5.8 mph9.3 kmh 29.91 in1012.9 mb - 0.00 in0.0 mm 0.65 in16.5 mm
11:30 PM 61.5°F16.4°C 59.5°F15.3°C 93% 4.6 mph N7.4 kmh N 4.6 mph7.4 kmh 29.91 in1012.9 mb - 0.00 in0.0 mm 0.65 in16.5 mm
11:35 PM 61.5°F16.4°C 59.5°F15.3°C 93% 3.5 mph NNE5.6 kmh NNE 5.8 mph9.3 kmh 29.91 in1012.9 mb - 0.00 in0.0 mm 0.65 in16.5 mm
11:40 PM 61.5°F16.4°C 59.5°F15.3°C 93% 3.5 mph NNE5.6 kmh NNE 4.6 mph7.4 kmh 29.91 in1012.9 mb - 0.00 in0.0 mm 0.65 in16.5 mm
11:45 PM 61.5°F16.4°C 59.5°F15.3°C 93% 2.3 mph SSW3.7 kmh SSW 4.6 mph7.4 kmh 29.91 in1012.9 mb - 0.00 in0.0 mm 0.65 in16.5 mm
11:50 PM 61.3°F16.3°C 59.3°F15.2°C 93% 3.5 mph NE5.6 kmh NE 3.5 mph5.6 kmh 29.91 in1012.9 mb - 0.00 in0.0 mm 0.65 in16.5 mm
11:55 PM 61.2°F16.2°C 59.1°F15.1°C 93% 2.3 mph E3.7 kmh E 3.5 mph5.6 kmh 29.91 in1012.9 mb - 0.00 in0.0 mm 0.65 in16.5 mm